sensor_id;sensor_type;location;lat;lon;timestamp;P1;durP1;ratioP1;P2;durP2;ratioP2
59159;SDS011;44941;45.058;20.076;2023-04-03T00:02:12;7.75;;;4.78;;
59159;SDS011;44941;45.058;20.076;2023-04-03T00:04:38;10.65;;;5.85;;
59159;SDS011;44941;45.058;20.076;2023-04-03T00:07:04;9.48;;;5.05;;
59159;SDS011;44941;45.058;20.076;2023-04-03T00:09:31;8.15;;;5.22;;
59159;SDS011;44941;45.058;20.076;2023-04-03T00:11:57;11.25;;;5.85;;
59159;SDS011;44941;45.058;20.076;2023-04-03T00:14:23;9.02;;;5.78;;
59159;SDS011;44941;45.058;20.076;2023-04-03T00:16:49;10.18;;;5.72;;
59159;SDS011;44941;45.058;20.076;2023-04-03T00:19:15;10.82;;;5.43;;
59159;SDS011;44941;45.058;20.076;2023-04-03T00:21:41;8.15;;;5.57;;
59159;SDS011;44941;45.058;20.076;2023-04-03T00:24:07;10.18;;;6.05;;
59159;SDS011;44941;45.058;20.076;2023-04-03T00:26:33;9.13;;;5.75;;
59159;SDS011;44941;45.058;20.076;2023-04-03T00:28:59;8.75;;;5.70;;
59159;SDS011;44941;45.058;20.076;2023-04-03T00:31:25;10.70;;;5.60;;
59159;SDS011;44941;45.058;20.076;2023-04-03T00:33:51;9.20;;;6.00;;
59159;SDS011;44941;45.058;20.076;2023-04-03T00:36:17;11.18;;;6.05;;
59159;SDS011;44941;45.058;20.076;2023-04-03T00:38:43;9.95;;;6.15;;
59159;SDS011;44941;45.058;20.076;2023-04-03T00:41:09;10.88;;;6.40;;
59159;SDS011;44941;45.058;20.076;2023-04-03T00:43:35;9.35;;;5.50;;
59159;SDS011;44941;45.058;20.076;2023-04-03T00:46:02;9.02;;;5.70;;
59159;SDS011;44941;45.058;20.076;2023-04-03T00:48:32;9.75;;;6.15;;
59159;SDS011;44941;45.058;20.076;2023-04-03T00:50:59;9.25;;;5.22;;
59159;SDS011;44941;45.058;20.076;2023-04-03T00:53:27;8.93;;;5.25;;
59159;SDS011;44941;45.058;20.076;2023-04-03T00:55:54;10.18;;;5.68;;
59159;SDS011;44941;45.058;20.076;2023-04-03T00:58:22;8.05;;;5.13;;
59159;SDS011;44941;45.058;20.076;2023-04-03T01:00:51;8.32;;;5.38;;
59159;SDS011;44941;45.058;20.076;2023-04-03T01:03:22;9.98;;;5.78;;
59159;SDS011;44941;45.058;20.076;2023-04-03T01:05:48;9.85;;;5.50;;
59159;SDS011;44941;45.058;20.076;2023-04-03T01:08:17;9.30;;;5.63;;
59159;SDS011;44941;45.058;20.076;2023-04-03T01:10:44;10.48;;;5.55;;
59159;SDS011;44941;45.058;20.076;2023-04-03T01:13:24;10.23;;;5.55;;
59159;SDS011;44941;45.058;20.076;2023-04-03T01:15:50;10.20;;;5.60;;
59159;SDS011;44941;45.058;20.076;2023-04-03T01:18:17;9.60;;;5.93;;
59159;SDS011;44941;45.058;20.076;2023-04-03T01:20:48;9.05;;;5.90;;
59159;SDS011;44941;45.058;20.076;2023-04-03T01:23:19;14.05;;;6.22;;
59159;SDS011;44941;45.058;20.076;2023-04-03T01:25:48;12.10;;;5.70;;
59159;SDS011;44941;45.058;20.076;2023-04-03T01:33:13;9.10;;;5.68;;
59159;SDS011;44941;45.058;20.076;2023-04-03T01:35:39;11.52;;;6.45;;
59159;SDS011;44941;45.058;20.076;2023-04-03T01:38:11;9.80;;;5.93;;
59159;SDS011;44941;45.058;20.076;2023-04-03T01:40:40;10.20;;;6.53;;
59159;SDS011;44941;45.058;20.076;2023-04-03T01:43:13;9.02;;;5.65;;
59159;SDS011;44941;45.058;20.076;2023-04-03T01:45:39;11.23;;;5.80;;
59159;SDS011;44941;45.058;20.076;2023-04-03T01:48:05;10.18;;;6.38;;
59159;SDS011;44941;45.058;20.076;2023-04-03T01:50:31;11.80;;;5.78;;
59159;SDS011;44941;45.058;20.076;2023-04-03T01:52:57;9.45;;;6.25;;
59159;SDS011;44941;45.058;20.076;2023-04-03T01:55:23;8.40;;;5.78;;
59159;SDS011;44941;45.058;20.076;2023-04-03T01:57:49;10.82;;;6.45;;
59159;SDS011;44941;45.058;20.076;2023-04-03T02:00:15;10.70;;;6.43;;
59159;SDS011;44941;45.058;20.076;2023-04-03T02:02:41;9.15;;;6.05;;
59159;SDS011;44941;45.058;20.076;2023-04-03T02:05:08;10.00;;;6.65;;
59159;SDS011;44941;45.058;20.076;2023-04-03T02:07:40;9.80;;;6.63;;
59159;SDS011;44941;45.058;20.076;2023-04-03T02:10:06;10.55;;;6.43;;
59159;SDS011;44941;45.058;20.076;2023-04-03T02:12:32;11.15;;;7.03;;
59159;SDS011;44941;45.058;20.076;2023-04-03T02:14:58;11.57;;;6.75;;
59159;SDS011;44941;45.058;20.076;2023-04-03T02:17:25;10.25;;;6.30;;
59159;SDS011;44941;45.058;20.076;2023-04-03T02:19:51;10.48;;;6.47;;
59159;SDS011;44941;45.058;20.076;2023-04-03T02:22:18;10.20;;;6.88;;
59159;SDS011;44941;45.058;20.076;2023-04-03T02:24:45;11.38;;;7.85;;
59159;SDS011;44941;45.058;20.076;2023-04-03T02:27:11;13.02;;;6.50;;
59159;SDS011;44941;45.058;20.076;2023-04-03T02:29:37;10.35;;;7.13;;
59159;SDS011;44941;45.058;20.076;2023-04-03T02:32:03;11.73;;;7.45;;
59159;SDS011;44941;45.058;20.076;2023-04-03T02:34:41;11.90;;;7.07;;
59159;SDS011;44941;45.058;20.076;2023-04-03T02:37:20;10.93;;;7.38;;
59159;SDS011;44941;45.058;20.076;2023-04-03T02:40:02;11.52;;;7.28;;
59159;SDS011;44941;45.058;20.076;2023-04-03T02:42:28;11.02;;;7.22;;
59159;SDS011;44941;45.058;20.076;2023-04-03T02:44:54;13.05;;;7.50;;
59159;SDS011;44941;45.058;20.076;2023-04-03T02:47:20;12.63;;;7.72;;
59159;SDS011;44941;45.058;20.076;2023-04-03T02:49:46;11.85;;;7.82;;
59159;SDS011;44941;45.058;20.076;2023-04-03T02:52:13;11.48;;;7.88;;
59159;SDS011;44941;45.058;20.076;2023-04-03T02:54:39;11.52;;;7.60;;
59159;SDS011;44941;45.058;20.076;2023-04-03T02:57:06;11.07;;;7.70;;
59159;SDS011;44941;45.058;20.076;2023-04-03T02:59:34;11.68;;;7.80;;
59159;SDS011;44941;45.058;20.076;2023-04-03T03:02:06;12.85;;;7.78;;
59159;SDS011;44941;45.058;20.076;2023-04-03T03:04:32;12.18;;;8.05;;
59159;SDS011;44941;45.058;20.076;2023-04-03T03:06:59;11.60;;;7.95;;
59159;SDS011;44941;45.058;20.076;2023-04-03T03:09:25;11.02;;;8.25;;
59159;SDS011;44941;45.058;20.076;2023-04-03T03:11:51;13.82;;;8.40;;
59159;SDS011;44941;45.058;20.076;2023-04-03T03:14:17;11.40;;;8.25;;
59159;SDS011;44941;45.058;20.076;2023-04-03T03:16:46;11.85;;;8.25;;
59159;SDS011;44941;45.058;20.076;2023-04-03T03:19:12;12.52;;;8.48;;
59159;SDS011;44941;45.058;20.076;2023-04-03T03:21:38;12.63;;;7.38;;
59159;SDS011;44941;45.058;20.076;2023-04-03T03:24:05;13.30;;;7.28;;
59159;SDS011;44941;45.058;20.076;2023-04-03T03:26:31;13.40;;;8.07;;
59159;SDS011;44941;45.058;20.076;2023-04-03T03:28:57;13.40;;;8.57;;
59159;SDS011;44941;45.058;20.076;2023-04-03T03:31:23;12.88;;;8.13;;
59159;SDS011;44941;45.058;20.076;2023-04-03T03:36:35;13.77;;;8.63;;
59159;SDS011;44941;45.058;20.076;2023-04-03T03:39:01;14.13;;;8.48;;
59159;SDS011;44941;45.058;20.076;2023-04-03T03:41:27;12.48;;;8.35;;
59159;SDS011;44941;45.058;20.076;2023-04-03T03:43:53;11.45;;;7.95;;
59159;SDS011;44941;45.058;20.076;2023-04-03T03:46:20;12.07;;;8.85;;
59159;SDS011;44941;45.058;20.076;2023-04-03T03:48:46;12.88;;;8.55;;
59159;SDS011;44941;45.058;20.076;2023-04-03T03:51:12;13.68;;;8.80;;
59159;SDS011;44941;45.058;20.076;2023-04-03T03:53:38;12.95;;;8.55;;
59159;SDS011;44941;45.058;20.076;2023-04-03T03:56:05;12.40;;;7.95;;
59159;SDS011;44941;45.058;20.076;2023-04-03T03:58:31;11.32;;;7.85;;
59159;SDS011;44941;45.058;20.076;2023-04-03T04:01:00;13.55;;;8.48;;
59159;SDS011;44941;45.058;20.076;2023-04-03T04:06:19;14.20;;;8.82;;
59159;SDS011;44941;45.058;20.076;2023-04-03T04:08:45;11.55;;;8.30;;
59159;SDS011;44941;45.058;20.076;2023-04-03T04:11:11;13.27;;;9.13;;
59159;SDS011;44941;45.058;20.076;2023-04-03T04:13:37;12.68;;;9.10;;
59159;SDS011;44941;45.058;20.076;2023-04-03T04:16:04;14.82;;;9.05;;
59159;SDS011;44941;45.058;20.076;2023-04-03T04:18:30;13.85;;;9.57;;
59159;SDS011;44941;45.058;20.076;2023-04-03T04:20:56;15.23;;;9.15;;
59159;SDS011;44941;45.058;20.076;2023-04-03T04:23:22;16.35;;;8.82;;
59159;SDS011;44941;45.058;20.076;2023-04-03T04:25:48;12.10;;;8.27;;
59159;SDS011;44941;45.058;20.076;2023-04-03T04:28:15;13.68;;;9.02;;
59159;SDS011;44941;45.058;20.076;2023-04-03T04:30:41;14.30;;;8.10;;
59159;SDS011;44941;45.058;20.076;2023-04-03T04:33:07;12.55;;;8.80;;
59159;SDS011;44941;45.058;20.076;2023-04-03T04:35:33;12.32;;;8.32;;
59159;SDS011;44941;45.058;20.076;2023-04-03T04:38:00;12.75;;;8.43;;
59159;SDS011;44941;45.058;20.076;2023-04-03T04:40:26;13.73;;;9.23;;
59159;SDS011;44941;45.058;20.076;2023-04-03T04:42:52;11.38;;;8.57;;
59159;SDS011;44941;45.058;20.076;2023-04-03T04:45:18;14.77;;;8.43;;
59159;SDS011;44941;45.058;20.076;2023-04-03T04:47:45;12.20;;;8.30;;
59159;SDS011;44941;45.058;20.076;2023-04-03T04:50:11;11.40;;;7.90;;
59159;SDS011;44941;45.058;20.076;2023-04-03T04:52:38;12.80;;;8.50;;
59159;SDS011;44941;45.058;20.076;2023-04-03T04:55:04;13.05;;;8.70;;
59159;SDS011;44941;45.058;20.076;2023-04-03T04:57:30;11.23;;;7.90;;
59159;SDS011;44941;45.058;20.076;2023-04-03T04:59:56;11.90;;;8.32;;
59159;SDS011;44941;45.058;20.076;2023-04-03T05:02:22;14.98;;;8.15;;
59159;SDS011;44941;45.058;20.076;2023-04-03T05:04:48;11.70;;;7.70;;
59159;SDS011;44941;45.058;20.076;2023-04-03T05:07:16;11.70;;;7.95;;
59159;SDS011;44941;45.058;20.076;2023-04-03T05:09:42;11.88;;;7.90;;
59159;SDS011;44941;45.058;20.076;2023-04-03T05:12:08;12.38;;;8.10;;
59159;SDS011;44941;45.058;20.076;2023-04-03T05:14:34;13.27;;;7.90;;
59159;SDS011;44941;45.058;20.076;2023-04-03T05:17:00;12.63;;;7.57;;
59159;SDS011;44941;45.058;20.076;2023-04-03T05:19:26;12.52;;;7.38;;
59159;SDS011;44941;45.058;20.076;2023-04-03T05:21:52;12.43;;;7.97;;
59159;SDS011;44941;45.058;20.076;2023-04-03T05:24:18;11.00;;;6.97;;
59159;SDS011;44941;45.058;20.076;2023-04-03T05:26:44;10.00;;;6.47;;
59159;SDS011;44941;45.058;20.076;2023-04-03T05:29:10;10.88;;;6.90;;
59159;SDS011;44941;45.058;20.076;2023-04-03T05:31:36;10.23;;;5.57;;
59159;SDS011;44941;45.058;20.076;2023-04-03T05:34:02;8.73;;;4.35;;
59159;SDS011;44941;45.058;20.076;2023-04-03T05:36:28;5.40;;;2.70;;
59159;SDS011;44941;45.058;20.076;2023-04-03T05:38:55;4.95;;;2.55;;
59159;SDS011;44941;45.058;20.076;2023-04-03T05:41:21;4.55;;;2.50;;
59159;SDS011;44941;45.058;20.076;2023-04-03T05:43:48;5.50;;;2.80;;
59159;SDS011;44941;45.058;20.076;2023-04-03T05:46:15;7.55;;;3.67;;
59159;SDS011;44941;45.058;20.076;2023-04-03T05:48:42;7.53;;;4.10;;
59159;SDS011;44941;45.058;20.076;2023-04-03T05:51:12;11.30;;;6.85;;
59159;SDS011;44941;45.058;20.076;2023-04-03T05:53:39;17.42;;;11.20;;
59159;SDS011;44941;45.058;20.076;2023-04-03T05:56:06;17.65;;;10.05;;
59159;SDS011;44941;45.058;20.076;2023-04-03T05:58:32;26.08;;;14.57;;
59159;SDS011;44941;45.058;20.076;2023-04-03T06:00:58;20.55;;;10.77;;
59159;SDS011;44941;45.058;20.076;2023-04-03T06:03:24;36.63;;;21.85;;
59159;SDS011;44941;45.058;20.076;2023-04-03T06:05:51;27.77;;;15.60;;
59159;SDS011;44941;45.058;20.076;2023-04-03T06:08:17;11.88;;;6.38;;
59159;SDS011;44941;45.058;20.076;2023-04-03T06:10:43;13.32;;;7.30;;
59159;SDS011;44941;45.058;20.076;2023-04-03T06:13:09;11.80;;;7.57;;
59159;SDS011;44941;45.058;20.076;2023-04-03T06:15:36;5.28;;;2.80;;
59159;SDS011;44941;45.058;20.076;2023-04-03T06:18:03;5.35;;;2.08;;
59159;SDS011;44941;45.058;20.076;2023-04-03T06:20:29;4.18;;;2.25;;
59159;SDS011;44941;45.058;20.076;2023-04-03T06:22:56;4.55;;;2.10;;
59159;SDS011;44941;45.058;20.076;2023-04-03T06:25:22;4.60;;;1.95;;
59159;SDS011;44941;45.058;20.076;2023-04-03T06:27:48;4.55;;;2.08;;
59159;SDS011;44941;45.058;20.076;2023-04-03T06:30:14;5.93;;;3.40;;
59159;SDS011;44941;45.058;20.076;2023-04-03T06:35:28;8.50;;;3.72;;
59159;SDS011;44941;45.058;20.076;2023-04-03T06:37:55;6.88;;;2.90;;
59159;SDS011;44941;45.058;20.076;2023-04-03T06:40:22;4.85;;;2.15;;
59159;SDS011;44941;45.058;20.076;2023-04-03T06:42:49;4.93;;;2.30;;
59159;SDS011;44941;45.058;20.076;2023-04-03T06:45:15;13.27;;;6.65;;
59159;SDS011;44941;45.058;20.076;2023-04-03T06:47:41;22.45;;;12.82;;
59159;SDS011;44941;45.058;20.076;2023-04-03T06:50:14;11.13;;;5.63;;
59159;SDS011;44941;45.058;20.076;2023-04-03T06:52:41;4.82;;;2.30;;
59159;SDS011;44941;45.058;20.076;2023-04-03T06:55:07;5.43;;;2.75;;
59159;SDS011;44941;45.058;20.076;2023-04-03T06:57:34;6.03;;;1.85;;
59159;SDS011;44941;45.058;20.076;2023-04-03T07:00:00;3.63;;;1.52;;
59159;SDS011;44941;45.058;20.076;2023-04-03T07:02:28;4.15;;;1.80;;
59159;SDS011;44941;45.058;20.076;2023-04-03T07:04:54;3.67;;;1.65;;
59159;SDS011;44941;45.058;20.076;2023-04-03T07:07:20;3.00;;;1.63;;
59159;SDS011;44941;45.058;20.076;2023-04-03T07:09:46;3.50;;;1.42;;
59159;SDS011;44941;45.058;20.076;2023-04-03T07:12:13;4.13;;;2.00;;
59159;SDS011;44941;45.058;20.076;2023-04-03T07:14:40;5.65;;;2.58;;
59159;SDS011;44941;45.058;20.076;2023-04-03T07:17:07;5.10;;;2.20;;
59159;SDS011;44941;45.058;20.076;2023-04-03T07:19:33;4.55;;;2.00;;
59159;SDS011;44941;45.058;20.076;2023-04-03T07:21:59;5.03;;;1.70;;
59159;SDS011;44941;45.058;20.076;2023-04-03T07:24:25;5.97;;;2.60;;
59159;SDS011;44941;45.058;20.076;2023-04-03T07:26:52;8.98;;;3.05;;
59159;SDS011;44941;45.058;20.076;2023-04-03T07:29:18;8.98;;;4.55;;
59159;SDS011;44941;45.058;20.076;2023-04-03T07:31:46;8.05;;;3.47;;
59159;SDS011;44941;45.058;20.076;2023-04-03T07:34:13;22.75;;;10.55;;
59159;SDS011;44941;45.058;20.076;2023-04-03T07:36:39;17.98;;;7.70;;
59159;SDS011;44941;45.058;20.076;2023-04-03T07:39:06;7.35;;;3.13;;
59159;SDS011;44941;45.058;20.076;2023-04-03T07:41:33;5.30;;;2.28;;
59159;SDS011;44941;45.058;20.076;2023-04-03T07:43:59;3.92;;;1.77;;
59159;SDS011;44941;45.058;20.076;2023-04-03T07:46:25;4.35;;;2.00;;
59159;SDS011;44941;45.058;20.076;2023-04-03T07:48:51;3.53;;;1.63;;
59159;SDS011;44941;45.058;20.076;2023-04-03T07:51:17;4.10;;;1.75;;
59159;SDS011;44941;45.058;20.076;2023-04-03T07:53:44;3.28;;;1.55;;
59159;SDS011;44941;45.058;20.076;2023-04-03T07:56:11;3.13;;;1.58;;
59159;SDS011;44941;45.058;20.076;2023-04-03T07:58:37;3.22;;;1.80;;
59159;SDS011;44941;45.058;20.076;2023-04-03T08:01:03;4.05;;;1.80;;
59159;SDS011;44941;45.058;20.076;2023-04-03T08:03:32;5.75;;;1.90;;
59159;SDS011;44941;45.058;20.076;2023-04-03T08:06:05;3.55;;;1.90;;
59159;SDS011;44941;45.058;20.076;2023-04-03T08:08:31;4.00;;;1.73;;
59159;SDS011;44941;45.058;20.076;2023-04-03T08:10:58;3.85;;;1.65;;
59159;SDS011;44941;45.058;20.076;2023-04-03T08:13:25;3.47;;;1.52;;
59159;SDS011;44941;45.058;20.076;2023-04-03T08:15:51;3.67;;;1.75;;
59159;SDS011;44941;45.058;20.076;2023-04-03T08:18:17;4.10;;;1.65;;
59159;SDS011;44941;45.058;20.076;2023-04-03T08:20:46;3.70;;;1.80;;
59159;SDS011;44941;45.058;20.076;2023-04-03T08:23:12;4.20;;;1.58;;
59159;SDS011;44941;45.058;20.076;2023-04-03T08:25:40;2.95;;;1.40;;
59159;SDS011;44941;45.058;20.076;2023-04-03T08:28:07;3.25;;;1.80;;
59159;SDS011;44941;45.058;20.076;2023-04-03T08:30:33;3.50;;;1.58;;
59159;SDS011;44941;45.058;20.076;2023-04-03T08:33:02;2.78;;;1.50;;
59159;SDS011;44941;45.058;20.076;2023-04-03T08:35:28;4.22;;;2.00;;
59159;SDS011;44941;45.058;20.076;2023-04-03T08:37:54;4.35;;;1.73;;
59159;SDS011;44941;45.058;20.076;2023-04-03T08:40:21;2.88;;;1.55;;
59159;SDS011;44941;45.058;20.076;2023-04-03T08:42:57;2.58;;;1.33;;
59159;SDS011;44941;45.058;20.076;2023-04-03T08:48:04;3.35;;;1.75;;
59159;SDS011;44941;45.058;20.076;2023-04-03T08:51:08;4.18;;;1.77;;
59159;SDS011;44941;45.058;20.076;2023-04-03T08:53:25;3.75;;;1.80;;
59159;SDS011;44941;45.058;20.076;2023-04-03T08:55:53;3.67;;;1.55;;
59159;SDS011;44941;45.058;20.076;2023-04-03T08:58:44;3.38;;;1.58;;
59159;SDS011;44941;45.058;20.076;2023-04-03T09:01:18;4.35;;;2.00;;
59159;SDS011;44941;45.058;20.076;2023-04-03T09:03:45;3.28;;;1.58;;
59159;SDS011;44941;45.058;20.076;2023-04-03T09:11:19;3.35;;;1.70;;
59159;SDS011;44941;45.058;20.076;2023-04-03T09:16:35;3.17;;;1.70;;
59159;SDS011;44941;45.058;20.076;2023-04-03T09:19:22;4.78;;;1.85;;
59159;SDS011;44941;45.058;20.076;2023-04-03T09:21:51;4.38;;;1.58;;
59159;SDS011;44941;45.058;20.076;2023-04-03T09:24:17;7.30;;;1.80;;
59159;SDS011;44941;45.058;20.076;2023-04-03T09:29:20;6.28;;;1.60;;
59159;SDS011;44941;45.058;20.076;2023-04-03T09:31:48;5.70;;;2.13;;
59159;SDS011;44941;45.058;20.076;2023-04-03T09:34:20;3.90;;;1.73;;
59159;SDS011;44941;45.058;20.076;2023-04-03T09:36:51;4.53;;;2.33;;
59159;SDS011;44941;45.058;20.076;2023-04-03T09:39:28;3.15;;;1.50;;
59159;SDS011;44941;45.058;20.076;2023-04-03T09:41:55;2.92;;;1.52;;
59159;SDS011;44941;45.058;20.076;2023-04-03T09:44:23;3.60;;;1.25;;
59159;SDS011;44941;45.058;20.076;2023-04-03T09:46:49;5.35;;;2.10;;
59159;SDS011;44941;45.058;20.076;2023-04-03T09:49:16;3.95;;;1.38;;
59159;SDS011;44941;45.058;20.076;2023-04-03T09:51:42;2.58;;;1.30;;
59159;SDS011;44941;45.058;20.076;2023-04-03T09:56:52;2.88;;;1.30;;
59159;SDS011;44941;45.058;20.076;2023-04-03T09:59:20;3.22;;;1.38;;
59159;SDS011;44941;45.058;20.076;2023-04-03T10:04:48;2.95;;;1.20;;
59159;SDS011;44941;45.058;20.076;2023-04-03T10:07:27;2.88;;;1.38;;
59159;SDS011;44941;45.058;20.076;2023-04-03T10:09:57;2.97;;;1.00;;
59159;SDS011;44941;45.058;20.076;2023-04-03T10:12:24;1.70;;;0.90;;
59159;SDS011;44941;45.058;20.076;2023-04-03T10:14:54;2.42;;;1.13;;
59159;SDS011;44941;45.058;20.076;2023-04-03T10:35:18;10.48;;;3.88;;
59159;SDS011;44941;45.058;20.076;2023-04-03T10:40:50;5.70;;;2.00;;
59159;SDS011;44941;45.058;20.076;2023-04-03T10:45:49;2.65;;;1.23;;
59159;SDS011;44941;45.058;20.076;2023-04-03T10:48:26;4.20;;;1.48;;
59159;SDS011;44941;45.058;20.076;2023-04-03T10:51:14;6.10;;;2.00;;
59159;SDS011;44941;45.058;20.076;2023-04-03T10:58:38;3.58;;;1.73;;
59159;SDS011;44941;45.058;20.076;2023-04-03T11:01:07;3.20;;;1.23;;
59159;SDS011;44941;45.058;20.076;2023-04-03T11:03:35;2.85;;;1.00;;
59159;SDS011;44941;45.058;20.076;2023-04-03T11:06:04;2.33;;;1.10;;
59159;SDS011;44941;45.058;20.076;2023-04-03T11:08:38;3.92;;;1.35;;
59159;SDS011;44941;45.058;20.076;2023-04-03T11:11:09;2.50;;;1.33;;
59159;SDS011;44941;45.058;20.076;2023-04-03T11:13:39;2.00;;;1.02;;
59159;SDS011;44941;45.058;20.076;2023-04-03T11:16:07;4.05;;;1.30;;
59159;SDS011;44941;45.058;20.076;2023-04-03T11:18:41;6.22;;;2.17;;
59159;SDS011;44941;45.058;20.076;2023-04-03T11:23:39;6.40;;;1.92;;
59159;SDS011;44941;45.058;20.076;2023-04-03T11:26:12;4.38;;;1.70;;
59159;SDS011;44941;45.058;20.076;2023-04-03T11:28:39;3.72;;;1.45;;
59159;SDS011;44941;45.058;20.076;2023-04-03T11:36:45;3.03;;;1.00;;
59159;SDS011;44941;45.058;20.076;2023-04-03T11:38:45;2.95;;;1.10;;
59159;SDS011;44941;45.058;20.076;2023-04-03T11:41:12;2.45;;;1.00;;
59159;SDS011;44941;45.058;20.076;2023-04-03T11:43:58;2.65;;;1.00;;
59159;SDS011;44941;45.058;20.076;2023-04-03T11:51:55;7.15;;;2.47;;
59159;SDS011;44941;45.058;20.076;2023-04-03T11:54:35;4.47;;;1.20;;
59159;SDS011;44941;45.058;20.076;2023-04-03T11:57:22;3.75;;;0.95;;
59159;SDS011;44941;45.058;20.076;2023-04-03T12:11:42;1.75;;;0.70;;
59159;SDS011;44941;45.058;20.076;2023-04-03T12:14:13;5.45;;;2.17;;
59159;SDS011;44941;45.058;20.076;2023-04-03T12:16:57;5.07;;;1.48;;
59159;SDS011;44941;45.058;20.076;2023-04-03T12:22:36;4.32;;;0.80;;
59159;SDS011;44941;45.058;20.076;2023-04-03T12:25:40;1.83;;;0.70;;
59159;SDS011;44941;45.058;20.076;2023-04-03T12:34:03;1.95;;;0.90;;
59159;SDS011;44941;45.058;20.076;2023-04-03T12:36:37;2.05;;;0.90;;
59159;SDS011;44941;45.058;20.076;2023-04-03T12:41:37;2.53;;;0.93;;
59159;SDS011;44941;45.058;20.076;2023-04-03T12:46:47;7.32;;;1.65;;
59159;SDS011;44941;45.058;20.076;2023-04-03T12:49:55;3.28;;;1.30;;
59159;SDS011;44941;45.058;20.076;2023-04-03T12:52:06;3.80;;;1.13;;
59159;SDS011;44941;45.058;20.076;2023-04-03T12:54:41;2.00;;;0.90;;
59159;SDS011;44941;45.058;20.076;2023-04-03T12:57:26;1.55;;;0.85;;
59159;SDS011;44941;45.058;20.076;2023-04-03T12:59:53;3.05;;;0.75;;
59159;SDS011;44941;45.058;20.076;2023-04-03T13:02:26;1.75;;;0.80;;
59159;SDS011;44941;45.058;20.076;2023-04-03T13:04:55;3.53;;;1.00;;
59159;SDS011;44941;45.058;20.076;2023-04-03T13:07:30;2.03;;;0.80;;
59159;SDS011;44941;45.058;20.076;2023-04-03T13:12:30;4.35;;;0.77;;
59159;SDS011;44941;45.058;20.076;2023-04-03T13:14:58;1.67;;;0.82;;
59159;SDS011;44941;45.058;20.076;2023-04-03T13:17:25;4.85;;;1.35;;
59159;SDS011;44941;45.058;20.076;2023-04-03T13:19:52;5.45;;;1.88;;
59159;SDS011;44941;45.058;20.076;2023-04-03T13:24:48;1.92;;;1.00;;
59159;SDS011;44941;45.058;20.076;2023-04-03T13:27:15;2.27;;;1.00;;
59159;SDS011;44941;45.058;20.076;2023-04-03T13:29:41;2.40;;;1.00;;
59159;SDS011;44941;45.058;20.076;2023-04-03T13:32:07;5.65;;;1.10;;
59159;SDS011;44941;45.058;20.076;2023-04-03T13:34:41;1.25;;;0.60;;
59159;SDS011;44941;45.058;20.076;2023-04-03T13:37:19;2.30;;;1.00;;
59159;SDS011;44941;45.058;20.076;2023-04-03T13:39:45;1.45;;;0.70;;
59159;SDS011;44941;45.058;20.076;2023-04-03T13:42:23;1.80;;;0.85;;
59159;SDS011;44941;45.058;20.076;2023-04-03T13:44:49;2.43;;;1.10;;
59159;SDS011;44941;45.058;20.076;2023-04-03T13:47:38;1.80;;;0.90;;
59159;SDS011;44941;45.058;20.076;2023-04-03T13:50:25;2.00;;;0.70;;
59159;SDS011;44941;45.058;20.076;2023-04-03T13:55:25;3.63;;;1.23;;
59159;SDS011;44941;45.058;20.076;2023-04-03T14:00:35;3.30;;;1.10;;
59159;SDS011;44941;45.058;20.076;2023-04-03T14:03:02;4.43;;;1.73;;
59159;SDS011;44941;45.058;20.076;2023-04-03T14:07:54;4.30;;;1.33;;
59159;SDS011;44941;45.058;20.076;2023-04-03T14:10:21;2.90;;;1.13;;
59159;SDS011;44941;45.058;20.076;2023-04-03T14:12:47;4.07;;;1.60;;
59159;SDS011;44941;45.058;20.076;2023-04-03T14:17:41;3.38;;;1.60;;
59159;SDS011;44941;45.058;20.076;2023-04-03T14:20:10;6.07;;;1.80;;
59159;SDS011;44941;45.058;20.076;2023-04-03T14:22:46;5.43;;;2.47;;
59159;SDS011;44941;45.058;20.076;2023-04-03T14:25:13;6.80;;;2.67;;
59159;SDS011;44941;45.058;20.076;2023-04-03T14:27:42;4.80;;;2.08;;
59159;SDS011;44941;45.058;20.076;2023-04-03T14:30:11;5.93;;;2.03;;
59159;SDS011;44941;45.058;20.076;2023-04-03T14:32:38;5.60;;;2.25;;
59159;SDS011;44941;45.058;20.076;2023-04-03T14:35:04;5.68;;;2.30;;
59159;SDS011;44941;45.058;20.076;2023-04-03T14:37:31;3.88;;;1.70;;
59159;SDS011;44941;45.058;20.076;2023-04-03T14:39:59;5.63;;;2.10;;
59159;SDS011;44941;45.058;20.076;2023-04-03T14:42:29;5.80;;;1.50;;
59159;SDS011;44941;45.058;20.076;2023-04-03T14:44:56;4.70;;;1.20;;
59159;SDS011;44941;45.058;20.076;2023-04-03T14:47:24;2.03;;;1.15;;
59159;SDS011;44941;45.058;20.076;2023-04-03T14:49:51;3.08;;;1.02;;
59159;SDS011;44941;45.058;20.076;2023-04-03T14:52:27;1.88;;;0.90;;
59159;SDS011;44941;45.058;20.076;2023-04-03T14:54:54;3.60;;;1.30;;
59159;SDS011;44941;45.058;20.076;2023-04-03T14:57:21;4.47;;;1.52;;
59159;SDS011;44941;45.058;20.076;2023-04-03T14:59:49;2.10;;;1.10;;
59159;SDS011;44941;45.058;20.076;2023-04-03T15:02:26;3.10;;;0.95;;
59159;SDS011;44941;45.058;20.076;2023-04-03T15:04:53;2.55;;;1.13;;
59159;SDS011;44941;45.058;20.076;2023-04-03T15:07:19;2.13;;;0.93;;
59159;SDS011;44941;45.058;20.076;2023-04-03T15:09:45;2.95;;;1.25;;
59159;SDS011;44941;45.058;20.076;2023-04-03T15:12:11;3.53;;;1.20;;
59159;SDS011;44941;45.058;20.076;2023-04-03T15:14:38;1.95;;;1.02;;
59159;SDS011;44941;45.058;20.076;2023-04-03T15:17:04;2.60;;;1.10;;
59159;SDS011;44941;45.058;20.076;2023-04-03T15:19:36;2.40;;;0.98;;
59159;SDS011;44941;45.058;20.076;2023-04-03T15:22:03;2.40;;;0.98;;
59159;SDS011;44941;45.058;20.076;2023-04-03T15:24:29;2.15;;;0.98;;
59159;SDS011;44941;45.058;20.076;2023-04-03T15:26:55;2.40;;;0.93;;
59159;SDS011;44941;45.058;20.076;2023-04-03T15:29:21;3.50;;;0.80;;
59159;SDS011;44941;45.058;20.076;2023-04-03T15:31:47;2.38;;;0.90;;
59159;SDS011;44941;45.058;20.076;2023-04-03T15:34:14;2.37;;;0.87;;
59159;SDS011;44941;45.058;20.076;2023-04-03T15:36:41;2.47;;;1.00;;
59159;SDS011;44941;45.058;20.076;2023-04-03T15:39:07;4.53;;;1.17;;
59159;SDS011;44941;45.058;20.076;2023-04-03T15:41:33;1.65;;;0.73;;
59159;SDS011;44941;45.058;20.076;2023-04-03T15:43:59;2.13;;;0.90;;
59159;SDS011;44941;45.058;20.076;2023-04-03T15:46:32;2.25;;;0.95;;
59159;SDS011;44941;45.058;20.076;2023-04-03T15:49:01;3.60;;;0.90;;
59159;SDS011;44941;45.058;20.076;2023-04-03T15:51:28;2.00;;;0.77;;
59159;SDS011;44941;45.058;20.076;2023-04-03T15:53:54;1.80;;;0.75;;
59159;SDS011;44941;45.058;20.076;2023-04-03T15:56:20;5.72;;;1.40;;
59159;SDS011;44941;45.058;20.076;2023-04-03T15:58:46;3.65;;;0.70;;
59159;SDS011;44941;45.058;20.076;2023-04-03T16:01:12;6.72;;;1.10;;
59159;SDS011;44941;45.058;20.076;2023-04-03T16:03:39;2.15;;;1.10;;
59159;SDS011;44941;45.058;20.076;2023-04-03T16:06:10;1.67;;;0.90;;
59159;SDS011;44941;45.058;20.076;2023-04-03T16:08:36;5.10;;;1.02;;
59159;SDS011;44941;45.058;20.076;2023-04-03T16:11:02;4.55;;;1.10;;
59159;SDS011;44941;45.058;20.076;2023-04-03T16:13:28;3.17;;;0.88;;
59159;SDS011;44941;45.058;20.076;2023-04-03T16:15:54;3.08;;;1.08;;
59159;SDS011;44941;45.058;20.076;2023-04-03T16:18:20;1.35;;;0.60;;
59159;SDS011;44941;45.058;20.076;2023-04-03T16:20:47;4.65;;;0.98;;
59159;SDS011;44941;45.058;20.076;2023-04-03T16:23:13;2.00;;;0.90;;
59159;SDS011;44941;45.058;20.076;2023-04-03T16:25:39;3.88;;;1.10;;
59159;SDS011;44941;45.058;20.076;2023-04-03T16:28:10;5.05;;;1.58;;
59159;SDS011;44941;45.058;20.076;2023-04-03T16:30:36;5.93;;;1.33;;
59159;SDS011;44941;45.058;20.076;2023-04-03T16:33:02;8.82;;;1.40;;